Gold Beach, OR

1:34 AM PST on February 06, 2016 (GMT -0800)
MesoWest | | Change Station
CLOSE
Current Station
Personal Weather Station
Location: Gold Beach, OR
Elevation: 16 ft
Nearby Weather Stations

Elev 16 ft 42.41 °N, 124.42 °W | Updated 35 minutes ago

Overcast
Overcast
48 °F
Feels Like 45 °F
N
6
Wind Variable Wind from NNW
Gusts 0.0 mph

Today
High -- | Low -- °F
--% Chance of Precip.
Yesterday
High -- | Low -- °F
Precip. -- in
Pressure 30.43 in
Visibility 2.5 miles
Clouds Overcast 800 ft
Windchill 45 °F
Dew Point 48 °F
Humidity 100%
Rainfall in
Snow Depth Not available.
7:26 AM 5:37 PM
Waning Crescent, 6% visible
SPECI KBOK 060932Z AUTO 12004KT 2 1/2SM -RA BR OVC008 09/09 A3043 RMK AO2 CIG 004V009 P0002
Pressure 30.43 in
Visibility 2.5 miles
Clouds Overcast 800 ft
Windchill 45 °F
Dew Point 48 °F
Humidity 100%
Rainfall in
Snow Depth Not available.
7:26 AM 5:37 PM
Waning Crescent, 6% visible
SPECI KBOK 060932Z AUTO 12004KT 2 1/2SM -RA BR OVC008 09/09 A3043 RMK AO2 CIG 004V009 P0002

10-Day Weather Forecast

Almanac

Astronomy

Feb. 06, 2016 Rise Set
Actual Time
Civil Twilight
Nautical Twilight
Astronomical Twilight
Moon
Length of Visible Light
Length of Day
Tomorrow will be .
, % of the Moon is Illuminated

Today's Extremes

State Highs State Lows

Community

WunderPhotos

Upload Photos

1,890,933 photos uploaded!

WunderBlog® & News

Nearby

Air Quality

  Air Quality AQ Index Pollutant
Not available.

Snow Depth

Station Depth Elevation

Earthquake Activity

City Distance Mag. Time & Date
Minimum magnitude displayed is 2.5.

Coastal Water Temperatures

Place Temperature

Stations

Nearby Weather Stations

Station Location Temp. Windchill Dew Point Humidity Wind Precip. Elev Updated Type
                   

Watches & Warnings

There are currently no watches in effect.